sensor_id;sensor_type;location;lat;lon;timestamp;P1;durP1;ratioP1;P2;durP2;ratioP2
37997;SDS011;24079;51.824;4.682;2022-12-16T00:02:13;54.72;;;32.55;;
37997;SDS011;24079;51.824;4.682;2022-12-16T00:04:38;58.55;;;31.25;;
37997;SDS011;24079;51.824;4.682;2022-12-16T00:07:04;40.53;;;21.33;;
37997;SDS011;24079;51.824;4.682;2022-12-16T00:09:30;35.97;;;19.17;;
37997;SDS011;24079;51.824;4.682;2022-12-16T00:11:55;32.30;;;17.35;;
37997;SDS011;24079;51.824;4.682;2022-12-16T00:14:21;30.27;;;16.52;;
37997;SDS011;24079;51.824;4.682;2022-12-16T00:16:47;33.08;;;17.98;;
37997;SDS011;24079;51.824;4.682;2022-12-16T00:19:12;35.05;;;16.27;;
37997;SDS011;24079;51.824;4.682;2022-12-16T00:21:40;28.30;;;14.98;;
37997;SDS011;24079;51.824;4.682;2022-12-16T00:24:06;23.20;;;14.15;;
37997;SDS011;24079;51.824;4.682;2022-12-16T00:26:31;25.10;;;12.60;;
37997;SDS011;24079;51.824;4.682;2022-12-16T00:29:00;25.98;;;12.90;;
37997;SDS011;24079;51.824;4.682;2022-12-16T00:31:26;22.63;;;11.90;;
37997;SDS011;24079;51.824;4.682;2022-12-16T00:33:54;25.73;;;11.73;;
37997;SDS011;24079;51.824;4.682;2022-12-16T00:36:21;26.35;;;11.35;;
37997;SDS011;24079;51.824;4.682;2022-12-16T00:38:50;20.10;;;12.05;;
37997;SDS011;24079;51.824;4.682;2022-12-16T00:41:16;22.90;;;11.57;;
37997;SDS011;24079;51.824;4.682;2022-12-16T00:43:42;22.08;;;11.88;;
37997;SDS011;24079;51.824;4.682;2022-12-16T00:46:08;21.55;;;11.35;;
37997;SDS011;24079;51.824;4.682;2022-12-16T00:48:33;24.17;;;11.57;;
37997;SDS011;24079;51.824;4.682;2022-12-16T00:51:02;25.60;;;11.60;;
37997;SDS011;24079;51.824;4.682;2022-12-16T00:53:28;17.17;;;9.48;;
37997;SDS011;24079;51.824;4.682;2022-12-16T00:56:04;27.17;;;11.00;;
37997;SDS011;24079;51.824;4.682;2022-12-16T00:58:31;18.92;;;10.73;;
37997;SDS011;24079;51.824;4.682;2022-12-16T01:01:02;29.00;;;10.82;;
37997;SDS011;24079;51.824;4.682;2022-12-16T01:03:28;22.20;;;10.57;;
37997;SDS011;24079;51.824;4.682;2022-12-16T01:05:54;19.13;;;9.75;;
37997;SDS011;24079;51.824;4.682;2022-12-16T01:08:19;20.95;;;9.73;;
37997;SDS011;24079;51.824;4.682;2022-12-16T01:10:49;19.88;;;9.80;;
37997;SDS011;24079;51.824;4.682;2022-12-16T01:13:16;20.85;;;9.25;;
37997;SDS011;24079;51.824;4.682;2022-12-16T01:15:42;17.38;;;8.40;;
37997;SDS011;24079;51.824;4.682;2022-12-16T01:18:07;18.35;;;9.05;;
37997;SDS011;24079;51.824;4.682;2022-12-16T01:20:33;19.75;;;9.02;;
37997;SDS011;24079;51.824;4.682;2022-12-16T01:23:02;15.02;;;8.25;;
37997;SDS011;24079;51.824;4.682;2022-12-16T01:25:27;17.80;;;8.38;;
37997;SDS011;24079;51.824;4.682;2022-12-16T01:27:53;21.50;;;8.88;;
37997;SDS011;24079;51.824;4.682;2022-12-16T01:30:19;14.10;;;7.55;;
37997;SDS011;24079;51.824;4.682;2022-12-16T01:32:44;15.95;;;6.85;;
37997;SDS011;24079;51.824;4.682;2022-12-16T01:35:10;14.48;;;6.93;;
37997;SDS011;24079;51.824;4.682;2022-12-16T01:37:37;17.73;;;6.97;;
37997;SDS011;24079;51.824;4.682;2022-12-16T01:40:03;12.68;;;6.13;;
37997;SDS011;24079;51.824;4.682;2022-12-16T01:42:33;12.80;;;5.57;;
37997;SDS011;24079;51.824;4.682;2022-12-16T01:47:53;15.05;;;5.90;;
37997;SDS011;24079;51.824;4.682;2022-12-16T01:50:23;14.40;;;5.85;;
37997;SDS011;24079;51.824;4.682;2022-12-16T01:52:51;12.80;;;5.30;;
37997;SDS011;24079;51.824;4.682;2022-12-16T01:55:23;10.70;;;4.70;;
37997;SDS011;24079;51.824;4.682;2022-12-16T01:58:02;12.82;;;5.20;;
37997;SDS011;24079;51.824;4.682;2022-12-16T02:00:32;13.27;;;5.10;;
37997;SDS011;24079;51.824;4.682;2022-12-16T02:02:59;14.23;;;5.47;;
37997;SDS011;24079;51.824;4.682;2022-12-16T02:05:25;12.10;;;5.28;;
37997;SDS011;24079;51.824;4.682;2022-12-16T02:16:19;16.08;;;5.25;;
37997;SDS011;24079;51.824;4.682;2022-12-16T02:19:01;8.32;;;4.43;;
37997;SDS011;24079;51.824;4.682;2022-12-16T02:38:33;10.50;;;4.32;;
37997;SDS011;24079;51.824;4.682;2022-12-16T02:44:04;8.10;;;3.83;;
37997;SDS011;24079;51.824;4.682;2022-12-16T02:46:34;9.85;;;4.05;;
37997;SDS011;24079;51.824;4.682;2022-12-16T02:49:07;12.63;;;3.58;;
37997;SDS011;24079;51.824;4.682;2022-12-16T02:51:53;9.88;;;3.70;;
37997;SDS011;24079;51.824;4.682;2022-12-16T02:54:21;10.88;;;3.78;;
37997;SDS011;24079;51.824;4.682;2022-12-16T02:57:00;9.38;;;3.72;;
37997;SDS011;24079;51.824;4.682;2022-12-16T03:00:05;8.65;;;3.03;;
37997;SDS011;24079;51.824;4.682;2022-12-16T03:02:40;14.55;;;3.17;;
37997;SDS011;24079;51.824;4.682;2022-12-16T03:05:25;8.60;;;3.15;;
37997;SDS011;24079;51.824;4.682;2022-12-16T03:07:58;6.05;;;2.88;;
37997;SDS011;24079;51.824;4.682;2022-12-16T03:10:29;9.32;;;3.20;;
37997;SDS011;24079;51.824;4.682;2022-12-16T03:12:59;11.63;;;3.17;;
37997;SDS011;24079;51.824;4.682;2022-12-16T03:15:27;11.20;;;3.80;;
37997;SDS011;24079;51.824;4.682;2022-12-16T03:17:57;10.77;;;2.95;;
37997;SDS011;24079;51.824;4.682;2022-12-16T03:20:33;9.93;;;2.80;;
37997;SDS011;24079;51.824;4.682;2022-12-16T03:23:04;13.98;;;3.47;;
37997;SDS011;24079;51.824;4.682;2022-12-16T03:25:34;7.90;;;3.38;;
37997;SDS011;24079;51.824;4.682;2022-12-16T03:28:05;8.50;;;2.75;;
37997;SDS011;24079;51.824;4.682;2022-12-16T03:30:38;14.70;;;3.10;;
37997;SDS011;24079;51.824;4.682;2022-12-16T03:33:11;10.57;;;3.95;;
37997;SDS011;24079;51.824;4.682;2022-12-16T03:35:52;11.63;;;3.03;;
37997;SDS011;24079;51.824;4.682;2022-12-16T03:38:23;17.35;;;3.88;;
37997;SDS011;24079;51.824;4.682;2022-12-16T03:40:51;9.75;;;3.58;;
37997;SDS011;24079;51.824;4.682;2022-12-16T03:43:18;11.38;;;3.83;;
37997;SDS011;24079;51.824;4.682;2022-12-16T03:45:44;8.10;;;3.17;;
37997;SDS011;24079;51.824;4.682;2022-12-16T03:48:11;8.55;;;3.58;;
37997;SDS011;24079;51.824;4.682;2022-12-16T03:50:37;15.50;;;4.25;;
37997;SDS011;24079;51.824;4.682;2022-12-16T03:53:04;9.25;;;4.38;;
37997;SDS011;24079;51.824;4.682;2022-12-16T03:55:31;11.35;;;3.35;;
37997;SDS011;24079;51.824;4.682;2022-12-16T03:57:57;17.38;;;3.55;;
37997;SDS011;24079;51.824;4.682;2022-12-16T04:00:23;11.50;;;3.35;;
37997;SDS011;24079;51.824;4.682;2022-12-16T04:02:50;10.25;;;2.97;;
37997;SDS011;24079;51.824;4.682;2022-12-16T04:05:16;9.88;;;2.90;;
37997;SDS011;24079;51.824;4.682;2022-12-16T04:07:42;6.25;;;2.95;;
37997;SDS011;24079;51.824;4.682;2022-12-16T04:10:08;12.90;;;2.58;;
37997;SDS011;24079;51.824;4.682;2022-12-16T04:12:34;6.53;;;3.00;;
37997;SDS011;24079;51.824;4.682;2022-12-16T04:15:20;18.85;;;2.60;;
37997;SDS011;24079;51.824;4.682;2022-12-16T04:18:05;10.65;;;2.53;;
37997;SDS011;24079;51.824;4.682;2022-12-16T04:20:55;11.00;;;2.92;;
37997;SDS011;24079;51.824;4.682;2022-12-16T04:23:45;17.40;;;2.92;;
37997;SDS011;24079;51.824;4.682;2022-12-16T04:26:33;11.23;;;2.72;;
37997;SDS011;24079;51.824;4.682;2022-12-16T04:29:19;10.20;;;2.17;;
37997;SDS011;24079;51.824;4.682;2022-12-16T04:31:44;14.50;;;3.08;;
37997;SDS011;24079;51.824;4.682;2022-12-16T04:34:10;6.35;;;2.20;;
37997;SDS011;24079;51.824;4.682;2022-12-16T04:36:52;12.98;;;3.08;;
37997;SDS011;24079;51.824;4.682;2022-12-16T04:39:37;12.73;;;2.70;;
37997;SDS011;24079;51.824;4.682;2022-12-16T04:42:21;9.35;;;2.92;;
37997;SDS011;24079;51.824;4.682;2022-12-16T04:45:05;8.40;;;2.75;;
37997;SDS011;24079;51.824;4.682;2022-12-16T04:47:49;8.65;;;2.88;;
37997;SDS011;24079;51.824;4.682;2022-12-16T04:50:36;14.65;;;2.78;;
37997;SDS011;24079;51.824;4.682;2022-12-16T04:53:20;10.23;;;3.15;;
37997;SDS011;24079;51.824;4.682;2022-12-16T04:56:05;12.70;;;3.33;;
37997;SDS011;24079;51.824;4.682;2022-12-16T04:58:54;9.35;;;2.58;;
37997;SDS011;24079;51.824;4.682;2022-12-16T05:01:38;12.00;;;2.85;;
37997;SDS011;24079;51.824;4.682;2022-12-16T05:04:22;11.20;;;3.08;;
37997;SDS011;24079;51.824;4.682;2022-12-16T05:07:06;19.55;;;3.35;;
37997;SDS011;24079;51.824;4.682;2022-12-16T05:09:50;15.13;;;3.72;;
37997;SDS011;24079;51.824;4.682;2022-12-16T05:12:34;11.75;;;2.97;;
37997;SDS011;24079;51.824;4.682;2022-12-16T05:15:18;10.27;;;2.70;;
37997;SDS011;24079;51.824;4.682;2022-12-16T05:18:13;9.00;;;3.00;;
37997;SDS011;24079;51.824;4.682;2022-12-16T05:20:58;7.65;;;3.45;;
37997;SDS011;24079;51.824;4.682;2022-12-16T05:23:44;10.45;;;2.83;;
37997;SDS011;24079;51.824;4.682;2022-12-16T05:26:29;12.95;;;3.40;;
37997;SDS011;24079;51.824;4.682;2022-12-16T05:29:13;10.10;;;2.92;;
37997;SDS011;24079;51.824;4.682;2022-12-16T05:31:58;10.52;;;3.38;;
37997;SDS011;24079;51.824;4.682;2022-12-16T05:34:42;12.65;;;3.35;;
37997;SDS011;24079;51.824;4.682;2022-12-16T05:37:26;9.38;;;3.05;;
37997;SDS011;24079;51.824;4.682;2022-12-16T05:40:10;11.32;;;3.40;;
37997;SDS011;24079;51.824;4.682;2022-12-16T05:42:55;10.60;;;3.92;;
37997;SDS011;24079;51.824;4.682;2022-12-16T05:45:40;12.73;;;3.83;;
37997;SDS011;24079;51.824;4.682;2022-12-16T05:48:24;17.38;;;4.18;;
37997;SDS011;24079;51.824;4.682;2022-12-16T05:51:29;18.33;;;4.55;;
37997;SDS011;24079;51.824;4.682;2022-12-16T05:54:13;14.55;;;4.07;;
37997;SDS011;24079;51.824;4.682;2022-12-16T05:56:57;15.30;;;4.05;;
37997;SDS011;24079;51.824;4.682;2022-12-16T05:59:41;10.05;;;4.35;;
37997;SDS011;24079;51.824;4.682;2022-12-16T06:02:25;13.07;;;5.68;;
37997;SDS011;24079;51.824;4.682;2022-12-16T06:05:09;23.95;;;15.75;;
37997;SDS011;24079;51.824;4.682;2022-12-16T06:07:53;32.05;;;21.15;;
37997;SDS011;24079;51.824;4.682;2022-12-16T06:10:37;36.53;;;24.42;;
37997;SDS011;24079;51.824;4.682;2022-12-16T06:13:21;40.50;;;26.73;;
37997;SDS011;24079;51.824;4.682;2022-12-16T06:16:06;34.92;;;18.80;;
37997;SDS011;24079;51.824;4.682;2022-12-16T06:18:50;17.35;;;11.73;;
37997;SDS011;24079;51.824;4.682;2022-12-16T06:21:34;19.90;;;10.80;;
37997;SDS011;24079;51.824;4.682;2022-12-16T06:24:18;12.55;;;6.72;;
37997;SDS011;24079;51.824;4.682;2022-12-16T06:27:03;17.50;;;6.63;;
37997;SDS011;24079;51.824;4.682;2022-12-16T06:29:53;17.50;;;5.13;;
37997;SDS011;24079;51.824;4.682;2022-12-16T06:32:37;16.42;;;5.00;;
37997;SDS011;24079;51.824;4.682;2022-12-16T06:35:21;17.27;;;6.82;;
37997;SDS011;24079;51.824;4.682;2022-12-16T06:38:05;12.73;;;5.35;;
37997;SDS011;24079;51.824;4.682;2022-12-16T06:40:57;14.25;;;5.13;;
37997;SDS011;24079;51.824;4.682;2022-12-16T06:43:41;10.45;;;4.95;;
37997;SDS011;24079;51.824;4.682;2022-12-16T06:46:25;11.75;;;5.00;;
37997;SDS011;24079;51.824;4.682;2022-12-16T06:49:09;16.38;;;5.32;;
37997;SDS011;24079;51.824;4.682;2022-12-16T06:51:53;13.73;;;5.50;;
37997;SDS011;24079;51.824;4.682;2022-12-16T06:54:37;18.05;;;5.50;;
37997;SDS011;24079;51.824;4.682;2022-12-16T06:57:21;19.05;;;7.90;;
37997;SDS011;24079;51.824;4.682;2022-12-16T07:00:05;18.05;;;6.57;;
37997;SDS011;24079;51.824;4.682;2022-12-16T07:02:49;16.58;;;6.07;;
37997;SDS011;24079;51.824;4.682;2022-12-16T07:05:33;15.13;;;6.43;;
37997;SDS011;24079;51.824;4.682;2022-12-16T07:08:22;12.88;;;5.10;;
37997;SDS011;24079;51.824;4.682;2022-12-16T07:11:06;14.25;;;6.03;;
37997;SDS011;24079;51.824;4.682;2022-12-16T07:13:50;16.58;;;5.68;;
37997;SDS011;24079;51.824;4.682;2022-12-16T07:16:34;16.42;;;5.28;;
37997;SDS011;24079;51.824;4.682;2022-12-16T07:19:18;13.77;;;4.85;;
37997;SDS011;24079;51.824;4.682;2022-12-16T07:22:02;11.75;;;5.03;;
37997;SDS011;24079;51.824;4.682;2022-12-16T07:24:47;18.00;;;6.15;;
37997;SDS011;24079;51.824;4.682;2022-12-16T07:27:31;16.92;;;6.68;;
37997;SDS011;24079;51.824;4.682;2022-12-16T07:30:15;20.08;;;6.10;;
37997;SDS011;24079;51.824;4.682;2022-12-16T07:32:59;17.70;;;7.90;;
37997;SDS011;24079;51.824;4.682;2022-12-16T07:35:43;19.15;;;7.43;;
37997;SDS011;24079;51.824;4.682;2022-12-16T07:38:27;22.50;;;8.55;;
37997;SDS011;24079;51.824;4.682;2022-12-16T07:53:04;26.02;;;9.77;;
37997;SDS011;24079;51.824;4.682;2022-12-16T07:55:50;24.88;;;10.20;;
37997;SDS011;24079;51.824;4.682;2022-12-16T07:58:34;18.35;;;8.77;;
37997;SDS011;24079;51.824;4.682;2022-12-16T08:01:19;20.17;;;7.22;;
37997;SDS011;24079;51.824;4.682;2022-12-16T08:04:03;23.73;;;6.97;;
37997;SDS011;24079;51.824;4.682;2022-12-16T08:06:47;21.80;;;7.47;;
37997;SDS011;24079;51.824;4.682;2022-12-16T08:09:31;20.25;;;8.43;;
37997;SDS011;24079;51.824;4.682;2022-12-16T08:12:15;27.55;;;8.45;;
37997;SDS011;24079;51.824;4.682;2022-12-16T08:14:59;23.75;;;8.10;;
37997;SDS011;24079;51.824;4.682;2022-12-16T08:17:50;20.67;;;8.82;;
37997;SDS011;24079;51.824;4.682;2022-12-16T08:20:34;20.00;;;8.15;;
37997;SDS011;24079;51.824;4.682;2022-12-16T08:23:19;21.30;;;7.68;;
37997;SDS011;24079;51.824;4.682;2022-12-16T08:26:04;21.65;;;7.78;;
37997;SDS011;24079;51.824;4.682;2022-12-16T08:28:49;20.30;;;6.82;;
37997;SDS011;24079;51.824;4.682;2022-12-16T08:31:33;16.98;;;6.60;;
37997;SDS011;24079;51.824;4.682;2022-12-16T08:34:18;19.10;;;6.25;;
37997;SDS011;24079;51.824;4.682;2022-12-16T08:37:03;20.67;;;6.40;;
37997;SDS011;24079;51.824;4.682;2022-12-16T08:39:47;17.08;;;7.22;;
37997;SDS011;24079;51.824;4.682;2022-12-16T08:42:32;27.17;;;7.80;;
37997;SDS011;24079;51.824;4.682;2022-12-16T08:45:16;15.50;;;6.95;;
37997;SDS011;24079;51.824;4.682;2022-12-16T08:48:00;16.63;;;6.57;;
37997;SDS011;24079;51.824;4.682;2022-12-16T08:50:44;17.35;;;7.30;;
37997;SDS011;24079;51.824;4.682;2022-12-16T09:59:10;18.75;;;6.43;;
37997;SDS011;24079;51.824;4.682;2022-12-16T10:01:59;13.95;;;5.70;;
37997;SDS011;24079;51.824;4.682;2022-12-16T10:04:44;16.27;;;5.65;;
37997;SDS011;24079;51.824;4.682;2022-12-16T10:07:33;16.63;;;7.05;;
37997;SDS011;24079;51.824;4.682;2022-12-16T10:10:30;16.85;;;6.28;;
37997;SDS011;24079;51.824;4.682;2022-12-16T10:25:44;15.93;;;7.05;;
37997;SDS011;24079;51.824;4.682;2022-12-16T10:28:46;15.20;;;7.97;;
37997;SDS011;24079;51.824;4.682;2022-12-16T10:31:34;20.95;;;7.40;;
37997;SDS011;24079;51.824;4.682;2022-12-16T10:34:24;16.17;;;6.65;;
37997;SDS011;24079;51.824;4.682;2022-12-16T10:37:17;16.45;;;7.80;;
37997;SDS011;24079;51.824;4.682;2022-12-16T10:40:12;13.98;;;6.85;;
37997;SDS011;24079;51.824;4.682;2022-12-16T10:43:04;16.90;;;7.22;;
37997;SDS011;24079;51.824;4.682;2022-12-16T10:45:54;19.45;;;6.88;;
37997;SDS011;24079;51.824;4.682;2022-12-16T10:48:40;18.77;;;7.00;;
37997;SDS011;24079;51.824;4.682;2022-12-16T10:51:26;13.68;;;5.97;;
37997;SDS011;24079;51.824;4.682;2022-12-16T10:57:02;14.02;;;6.57;;
37997;SDS011;24079;51.824;4.682;2022-12-16T11:00:12;17.52;;;5.20;;
37997;SDS011;24079;51.824;4.682;2022-12-16T11:03:18;16.80;;;5.55;;
37997;SDS011;24079;51.824;4.682;2022-12-16T11:06:28;14.95;;;5.72;;
37997;SDS011;24079;51.824;4.682;2022-12-16T11:12:16;16.73;;;5.60;;
37997;SDS011;24079;51.824;4.682;2022-12-16T11:18:03;14.73;;;7.10;;
37997;SDS011;24079;51.824;4.682;2022-12-16T11:21:20;17.35;;;6.25;;
37997;SDS011;24079;51.824;4.682;2022-12-16T11:26:57;18.13;;;5.90;;
37997;SDS011;24079;51.824;4.682;2022-12-16T11:33:01;11.55;;;4.28;;
37997;SDS011;24079;51.824;4.682;2022-12-16T11:36:00;9.00;;;4.10;;
37997;SDS011;24079;51.824;4.682;2022-12-16T11:38:53;14.07;;;4.00;;
37997;SDS011;24079;51.824;4.682;2022-12-16T11:41:39;10.95;;;3.65;;
37997;SDS011;24079;51.824;4.682;2022-12-16T11:47:34;10.65;;;3.63;;
37997;SDS011;24079;51.824;4.682;2022-12-16T11:50:28;11.50;;;3.70;;
37997;SDS011;24079;51.824;4.682;2022-12-16T11:56:23;8.35;;;3.85;;
37997;SDS011;24079;51.824;4.682;2022-12-16T12:05:32;10.95;;;3.88;;
37997;SDS011;24079;51.824;4.682;2022-12-16T12:15:02;9.18;;;3.78;;
37997;SDS011;24079;51.824;4.682;2022-12-16T12:18:03;13.98;;;3.90;;
37997;SDS011;24079;51.824;4.682;2022-12-16T12:21:23;9.85;;;4.07;;
37997;SDS011;24079;51.824;4.682;2022-12-16T12:30:10;7.57;;;3.42;;
37997;SDS011;24079;51.824;4.682;2022-12-16T12:39:02;10.07;;;3.28;;
37997;SDS011;24079;51.824;4.682;2022-12-16T12:42:14;10.38;;;3.50;;
37997;SDS011;24079;51.824;4.682;2022-12-16T12:45:20;7.18;;;3.45;;
37997;SDS011;24079;51.824;4.682;2022-12-16T12:48:14;11.68;;;4.25;;
37997;SDS011;24079;51.824;4.682;2022-12-16T12:53:59;9.27;;;3.17;;
37997;SDS011;24079;51.824;4.682;2022-12-16T12:56:57;7.90;;;3.58;;
37997;SDS011;24079;51.824;4.682;2022-12-16T12:59:58;8.80;;;3.30;;
37997;SDS011;24079;51.824;4.682;2022-12-16T13:06:06;10.82;;;3.55;;
37997;SDS011;24079;51.824;4.682;2022-12-16T13:11:35;7.18;;;3.30;;
37997;SDS011;24079;51.824;4.682;2022-12-16T13:15:06;8.30;;;3.50;;
37997;SDS011;24079;51.824;4.682;2022-12-16T13:17:28;11.32;;;3.97;;
37997;SDS011;24079;51.824;4.682;2022-12-16T13:26:11;13.38;;;4.00;;
37997;SDS011;24079;51.824;4.682;2022-12-16T13:29:40;6.47;;;3.33;;
37997;SDS011;24079;51.824;4.682;2022-12-16T13:32:20;13.30;;;3.30;;
37997;SDS011;24079;51.824;4.682;2022-12-16T13:38:05;7.93;;;3.33;;
37997;SDS011;24079;51.824;4.682;2022-12-16T13:41:04;9.70;;;3.97;;
37997;SDS011;24079;51.824;4.682;2022-12-16T13:44:09;10.13;;;3.30;;
37997;SDS011;24079;51.824;4.682;2022-12-16T13:46:54;12.65;;;4.40;;
37997;SDS011;24079;51.824;4.682;2022-12-16T13:49:46;10.32;;;4.15;;
37997;SDS011;24079;51.824;4.682;2022-12-16T13:58:35;9.00;;;3.75;;
37997;SDS011;24079;51.824;4.682;2022-12-16T14:01:26;10.25;;;3.80;;
37997;SDS011;24079;51.824;4.682;2022-12-16T14:04:11;13.82;;;4.72;;
37997;SDS011;24079;51.824;4.682;2022-12-16T14:09:47;10.60;;;3.85;;
37997;SDS011;24079;51.824;4.682;2022-12-16T14:12:43;9.45;;;3.80;;
37997;SDS011;24079;51.824;4.682;2022-12-16T14:18:41;10.18;;;3.65;;
37997;SDS011;24079;51.824;4.682;2022-12-16T14:21:46;12.15;;;4.03;;
37997;SDS011;24079;51.824;4.682;2022-12-16T14:24:46;12.95;;;5.05;;
37997;SDS011;24079;51.824;4.682;2022-12-16T14:27:31;9.10;;;4.40;;
37997;SDS011;24079;51.824;4.682;2022-12-16T14:30:21;18.70;;;5.10;;
37997;SDS011;24079;51.824;4.682;2022-12-16T14:33:14;8.38;;;4.35;;
37997;SDS011;24079;51.824;4.682;2022-12-16T14:36:02;12.43;;;4.60;;
37997;SDS011;24079;51.824;4.682;2022-12-16T14:38:46;11.60;;;4.78;;
37997;SDS011;24079;51.824;4.682;2022-12-16T14:41:31;12.38;;;4.65;;
37997;SDS011;24079;51.824;4.682;2022-12-16T14:44:22;10.95;;;3.85;;
37997;SDS011;24079;51.824;4.682;2022-12-16T14:47:17;8.52;;;4.20;;
37997;SDS011;24079;51.824;4.682;2022-12-16T14:50:03;11.15;;;4.47;;
37997;SDS011;24079;51.824;4.682;2022-12-16T14:53:13;15.13;;;4.85;;
37997;SDS011;24079;51.824;4.682;2022-12-16T14:56:08;13.80;;;5.40;;
37997;SDS011;24079;51.824;4.682;2022-12-16T14:59:16;10.27;;;4.68;;
37997;SDS011;24079;51.824;4.682;2022-12-16T15:02:10;10.05;;;4.93;;
37997;SDS011;24079;51.824;4.682;2022-12-16T15:05:11;12.88;;;4.95;;
37997;SDS011;24079;51.824;4.682;2022-12-16T15:07:56;13.25;;;5.28;;
37997;SDS011;24079;51.824;4.682;2022-12-16T15:10:40;14.65;;;6.15;;
37997;SDS011;24079;51.824;4.682;2022-12-16T15:13:25;15.88;;;5.80;;
37997;SDS011;24079;51.824;4.682;2022-12-16T15:16:14;11.27;;;5.15;;
37997;SDS011;24079;51.824;4.682;2022-12-16T15:19:00;12.15;;;5.72;;
37997;SDS011;24079;51.824;4.682;2022-12-16T15:21:45;14.02;;;6.10;;
37997;SDS011;24079;51.824;4.682;2022-12-16T15:24:31;10.93;;;5.93;;
37997;SDS011;24079;51.824;4.682;2022-12-16T15:33:25;13.05;;;6.18;;
37997;SDS011;24079;51.824;4.682;2022-12-16T15:36:29;13.07;;;6.18;;
37997;SDS011;24079;51.824;4.682;2022-12-16T15:48:23;25.17;;;12.15;;
37997;SDS011;24079;51.824;4.682;2022-12-16T15:51:48;21.33;;;10.38;;
37997;SDS011;24079;51.824;4.682;2022-12-16T15:54:27;21.85;;;9.98;;
37997;SDS011;24079;51.824;4.682;2022-12-16T15:57:25;21.85;;;9.45;;
37997;SDS011;24079;51.824;4.682;2022-12-16T16:03:02;21.05;;;9.88;;
37997;SDS011;24079;51.824;4.682;2022-12-16T16:05:46;18.95;;;9.82;;
37997;SDS011;24079;51.824;4.682;2022-12-16T16:08:30;23.27;;;10.25;;
37997;SDS011;24079;51.824;4.682;2022-12-16T16:11:14;19.67;;;10.52;;
37997;SDS011;24079;51.824;4.682;2022-12-16T16:13:58;25.52;;;12.07;;
37997;SDS011;24079;51.824;4.682;2022-12-16T16:16:44;23.23;;;12.02;;
37997;SDS011;24079;51.824;4.682;2022-12-16T16:19:30;32.33;;;14.82;;
37997;SDS011;24079;51.824;4.682;2022-12-16T16:22:19;30.92;;;15.23;;
37997;SDS011;24079;51.824;4.682;2022-12-16T16:25:03;37.70;;;17.30;;
37997;SDS011;24079;51.824;4.682;2022-12-16T16:27:48;36.75;;;20.58;;
37997;SDS011;24079;51.824;4.682;2022-12-16T16:30:32;34.88;;;19.33;;
37997;SDS011;24079;51.824;4.682;2022-12-16T16:33:16;34.30;;;19.35;;
37997;SDS011;24079;51.824;4.682;2022-12-16T16:39:14;31.67;;;18.15;;
37997;SDS011;24079;51.824;4.682;2022-12-16T16:41:59;32.80;;;18.67;;
37997;SDS011;24079;51.824;4.682;2022-12-16T16:44:43;36.97;;;19.90;;
37997;SDS011;24079;51.824;4.682;2022-12-16T16:47:27;35.28;;;19.67;;
37997;SDS011;24079;51.824;4.682;2022-12-16T16:50:14;30.02;;;18.23;;
37997;SDS011;24079;51.824;4.682;2022-12-16T16:53:01;30.58;;;17.45;;
37997;SDS011;24079;51.824;4.682;2022-12-16T16:55:45;32.78;;;17.25;;
37997;SDS011;24079;51.824;4.682;2022-12-16T17:21:40;27.05;;;14.90;;
37997;SDS011;24079;51.824;4.682;2022-12-16T17:24:26;34.17;;;15.10;;
37997;SDS011;24079;51.824;4.682;2022-12-16T17:27:15;34.28;;;16.77;;
37997;SDS011;24079;51.824;4.682;2022-12-16T17:30:05;37.80;;;16.70;;
37997;SDS011;24079;51.824;4.682;2022-12-16T17:32:56;32.38;;;14.98;;
37997;SDS011;24079;51.824;4.682;2022-12-16T17:35:53;43.63;;;15.63;;
37997;SDS011;24079;51.824;4.682;2022-12-16T17:38:47;30.88;;;14.73;;
37997;SDS011;24079;51.824;4.682;2022-12-16T17:41:31;28.98;;;15.63;;
37997;SDS011;24079;51.824;4.682;2022-12-16T17:44:16;33.65;;;15.02;;
37997;SDS011;24079;51.824;4.682;2022-12-16T17:47:01;33.55;;;14.98;;
37997;SDS011;24079;51.824;4.682;2022-12-16T17:49:46;39.08;;;15.35;;
37997;SDS011;24079;51.824;4.682;2022-12-16T17:52:30;27.90;;;14.57;;
37997;SDS011;24079;51.824;4.682;2022-12-16T17:55:14;28.88;;;16.23;;
37997;SDS011;24079;51.824;4.682;2022-12-16T17:57:58;29.00;;;15.52;;
37997;SDS011;24079;51.824;4.682;2022-12-16T18:00:43;32.88;;;14.88;;
37997;SDS011;24079;51.824;4.682;2022-12-16T18:03:27;29.88;;;15.18;;
37997;SDS011;24079;51.824;4.682;2022-12-16T18:06:14;32.45;;;15.38;;
37997;SDS011;24079;51.824;4.682;2022-12-16T18:08:58;29.50;;;16.02;;
37997;SDS011;24079;51.824;4.682;2022-12-16T18:11:42;31.25;;;16.33;;
37997;SDS011;24079;51.824;4.682;2022-12-16T18:14:29;30.88;;;16.60;;
37997;SDS011;24079;51.824;4.682;2022-12-16T18:17:14;35.83;;;17.60;;
37997;SDS011;24079;51.824;4.682;2022-12-16T18:20:01;32.53;;;16.92;;
37997;SDS011;24079;51.824;4.682;2022-12-16T18:22:57;35.92;;;16.52;;
37997;SDS011;24079;51.824;4.682;2022-12-16T18:25:44;30.88;;;15.55;;
37997;SDS011;24079;51.824;4.682;2022-12-16T18:28:40;25.55;;;14.20;;
37997;SDS011;24079;51.824;4.682;2022-12-16T18:31:24;26.70;;;13.75;;
37997;SDS011;24079;51.824;4.682;2022-12-16T18:34:21;24.85;;;14.13;;
37997;SDS011;24079;51.824;4.682;2022-12-16T18:50:34;24.20;;;13.48;;
37997;SDS011;24079;51.824;4.682;2022-12-16T20:03:28;27.70;;;13.95;;
37997;SDS011;24079;51.824;4.682;2022-12-16T20:06:12;31.30;;;14.82;;
37997;SDS011;24079;51.824;4.682;2022-12-16T20:08:57;26.85;;;14.05;;
37997;SDS011;24079;51.824;4.682;2022-12-16T20:11:41;28.67;;;13.68;;
37997;SDS011;24079;51.824;4.682;2022-12-16T20:14:26;24.98;;;13.43;;
37997;SDS011;24079;51.824;4.682;2022-12-16T20:17:11;26.90;;;14.07;;
37997;SDS011;24079;51.824;4.682;2022-12-16T20:19:58;24.75;;;14.10;;
37997;SDS011;24079;51.824;4.682;2022-12-16T20:39:42;33.53;;;18.38;;
37997;SDS011;24079;51.824;4.682;2022-12-16T20:42:26;30.75;;;17.40;;
37997;SDS011;24079;51.824;4.682;2022-12-16T20:45:10;34.97;;;18.15;;
37997;SDS011;24079;51.824;4.682;2022-12-16T20:48:00;35.35;;;19.67;;
37997;SDS011;24079;51.824;4.682;2022-12-16T20:50:56;38.55;;;21.42;;
37997;SDS011;24079;51.824;4.682;2022-12-16T20:53:41;39.03;;;20.88;;
37997;SDS011;24079;51.824;4.682;2022-12-16T20:56:33;39.05;;;22.23;;
37997;SDS011;24079;51.824;4.682;2022-12-16T20:59:20;43.28;;;23.30;;
37997;SDS011;24079;51.824;4.682;2022-12-16T21:02:04;42.92;;;22.52;;
37997;SDS011;24079;51.824;4.682;2022-12-16T21:04:48;39.50;;;21.73;;
37997;SDS011;24079;51.824;4.682;2022-12-16T21:07:33;41.70;;;23.38;;
37997;SDS011;24079;51.824;4.682;2022-12-16T21:10:17;55.38;;;30.35;;
37997;SDS011;24079;51.824;4.682;2022-12-16T21:13:06;52.42;;;28.90;;
37997;SDS011;24079;51.824;4.682;2022-12-16T21:15:50;52.47;;;28.23;;
37997;SDS011;24079;51.824;4.682;2022-12-16T21:18:34;51.65;;;27.23;;
37997;SDS011;24079;51.824;4.682;2022-12-16T21:21:18;49.15;;;26.65;;
37997;SDS011;24079;51.824;4.682;2022-12-16T21:24:02;60.28;;;30.08;;
37997;SDS011;24079;51.824;4.682;2022-12-16T21:26:47;63.28;;;31.73;;
37997;SDS011;24079;51.824;4.682;2022-12-16T21:29:30;73.57;;;37.58;;
37997;SDS011;24079;51.824;4.682;2022-12-16T21:32:14;68.90;;;37.75;;
37997;SDS011;24079;51.824;4.682;2022-12-16T21:34:58;69.28;;;38.75;;
37997;SDS011;24079;51.824;4.682;2022-12-16T21:37:42;74.75;;;39.85;;
37997;SDS011;24079;51.824;4.682;2022-12-16T21:43:33;77.78;;;42.95;;
37997;SDS011;24079;51.824;4.682;2022-12-16T21:46:17;77.93;;;38.67;;
37997;SDS011;24079;51.824;4.682;2022-12-16T21:49:04;66.90;;;37.55;;
37997;SDS011;24079;51.824;4.682;2022-12-16T21:52:05;65.70;;;36.97;;